Time;durP1;ratioP1;P1;durP2;ratioP2;P2;SDS_P1;SDS_P2;PMS_P1;PMS_P2;Temp;Humidity;BMP_temperature;BMP_pressure;BME280_temperature;BME280_humidity;BME280_pressure;Samples;Min_cycle;Max_cycle;Signal;HPM_P1;HPM_P2
2022/10/19 00:00:38;;;;;;;11.10;4.95;;;13.00;99.90;;;;;;5033846;28;20254;-79
2022/10/19 00:03:03;;;;;;;14.57;5.90;;;12.90;99.90;;;;;;5034041;28;20631;-79
2022/10/19 00:05:29;;;;;;;29.83;6.50;;;12.80;99.90;;;;;;5034280;28;20184;-78
2022/10/19 00:07:55;;;;;;;13.82;5.47;;;12.90;99.90;;;;;;5034311;28;20202;-78
2022/10/19 00:10:20;;;;;;;14.10;5.93;;;13.00;99.90;;;;;;5034271;28;20156;-78
2022/10/19 00:12:46;;;;;;;10.65;4.78;;;12.90;99.90;;;;;;5032846;28;20217;-78
2022/10/19 00:15:11;;;;;;;20.70;5.18;;;12.80;99.90;;;;;;5033872;28;20549;-78
2022/10/19 00:17:37;;;;;;;16.10;6.07;;;12.80;99.90;;;;;;5033990;28;20167;-81
2022/10/19 00:20:03;;;;;;;11.55;5.68;;;12.80;99.90;;;;;;5033927;28;20178;-79
2022/10/19 00:22:29;;;;;;;16.85;5.03;;;12.80;99.90;;;;;;5049441;28;20238;-79
2022/10/19 00:24:56;;;;;;;13.52;5.80;;;12.80;99.90;;;;;;5033948;28;20192;-78
2022/10/19 00:27:22;;;;;;;18.00;5.50;;;12.70;99.90;;;;;;5033999;28;20214;-79
2022/10/19 00:29:47;;;;;;;12.35;5.55;;;12.60;99.90;;;;;;5033945;28;20160;-78
2022/10/19 00:32:13;;;;;;;17.67;5.88;;;12.60;99.90;;;;;;5033391;28;20579;-79
2022/10/19 00:34:39;;;;;;;15.45;5.68;;;12.60;99.90;;;;;;5033722;28;20168;-79
2022/10/19 00:37:07;;;;;;;12.18;5.88;;;12.60;99.90;;;;;;5033787;28;20590;-79
2022/10/19 00:39:33;;;;;;;15.15;5.47;;;12.70;99.90;;;;;;5033739;28;21230;-79
2022/10/19 00:41:58;;;;;;;30.15;6.07;;;12.70;99.90;;;;;;5033308;28;20239;-78
2022/10/19 00:44:30;;;;;;;15.00;6.13;;;12.80;99.90;;;;;;5032012;28;20174;-77
2022/10/19 00:47:03;;;;;;;12.63;5.65;;;12.80;99.90;;;;;;5033527;28;20191;-79
2022/10/19 00:49:34;;;;;;;15.07;5.57;;;12.70;99.90;;;;;;5033345;28;20630;-78
2022/10/19 00:52:09;;;;;;;13.85;5.90;;;12.80;99.90;;;;;;5033345;28;20160;-85
2022/10/19 00:54:37;;;;;;;12.60;5.18;;;12.60;99.90;;;;;;5033401;28;20179;-79
2022/10/19 00:57:04;;;;;;;18.08;4.80;;;12.40;99.90;;;;;;5033085;28;20184;-79
2022/10/19 00:59:31;;;;;;;9.20;5.85;;;12.40;99.90;;;;;;5033272;28;20178;-79
2022/10/19 01:01:57;;;;;;;18.85;6.53;;;12.30;99.90;;;;;;5031576;28;20207;-79
2022/10/19 01:04:26;;;;;;;18.00;5.72;;;12.30;99.90;;;;;;5032999;28;20648;-79
2022/10/19 01:06:53;;;;;;;23.95;6.07;;;12.30;99.90;;;;;;5040041;28;20270;-79
2022/10/19 01:09:19;;;;;;;18.92;5.50;;;12.20;99.90;;;;;;5052840;28;20156;-79
2022/10/19 01:12:06;;;;;;;12.57;5.35;;;12.10;99.90;;;;;;5040878;28;20247;-79
2022/10/19 01:14:35;;;;;;;12.18;5.28;;;12.10;99.90;;;;;;5035073;28;20266;-78
2022/10/19 01:17:35;;;;;;;12.45;4.95;;;12.10;99.90;;;;;;5032215;28;20219;-78
2022/10/19 01:20:27;;;;;;;9.45;5.22;;;12.20;99.90;;;;;;5029011;28;20222;-79
2022/10/19 01:23:20;;;;;;;11.00;4.75;;;12.00;99.90;;;;;;5031992;28;20306;-79
2022/10/19 01:26:14;;;;;;;8.20;4.65;;;12.00;99.90;;;;;;5031871;28;20187;-79
2022/10/19 01:29:05;;;;;;;14.93;5.72;;;12.10;99.90;;;;;;5032875;28;20167;-78
2022/10/19 01:31:40;;;;;;;9.23;5.22;;;12.20;99.90;;;;;;5032164;28;20202;-79
2022/10/19 01:34:09;;;;;;;17.48;5.63;;;12.00;99.90;;;;;;5034783;28;20174;-78
2022/10/19 01:36:51;;;;;;;20.27;4.90;;;12.10;99.90;;;;;;5034892;28;20207;-79
2022/10/19 01:39:52;;;;;;;17.90;5.13;;;11.90;99.90;;;;;;5034992;28;20206;-78
2022/10/19 01:42:36;;;;;;;8.02;5.50;;;11.80;99.90;;;;;;5017981;28;20237;-78
2022/10/19 01:45:28;;;;;;;13.00;4.65;;;11.90;99.90;;;;;;5034528;28;20167;-78
2022/10/19 01:48:17;;;;;;;17.95;5.10;;;11.90;99.90;;;;;;5033376;28;20271;-78
2022/10/19 01:51:03;;;;;;;18.45;4.88;;;11.80;99.90;;;;;;5034648;28;20178;-78
2022/10/19 01:53:33;;;;;;;15.55;5.80;;;11.70;99.90;;;;;;5032790;28;20175;-79
2022/10/19 01:56:01;;;;;;;15.48;5.20;;;11.80;99.90;;;;;;5033008;28;20180;-78
2022/10/19 01:58:30;;;;;;;9.90;4.97;;;11.70;99.90;;;;;;5034634;28;20217;-78
2022/10/19 02:00:59;;;;;;;28.33;6.38;;;11.80;99.90;;;;;;5033533;28;20195;-77
2022/10/19 02:03:26;;;;;;;6.00;4.85;;;11.80;99.90;;;;;;5034096;28;20187;-79
2022/10/19 02:05:53;;;;;;;15.55;4.63;;;11.80;99.90;;;;;;5033140;28;20207;-77
2022/10/19 02:08:30;;;;;;;20.48;5.70;;;11.70;99.90;;;;;;5034030;28;20239;-77
2022/10/19 02:10:57;;;;;;;23.42;5.40;;;11.60;99.90;;;;;;5033585;28;20156;-90
2022/10/19 02:13:25;;;;;;;15.50;5.07;;;11.60;99.90;;;;;;5033060;28;20544;-77
2022/10/19 02:15:53;;;;;;;17.90;5.10;;;11.60;99.90;;;;;;5031681;28;20280;-78
2022/10/19 02:18:25;;;;;;;12.73;5.57;;;11.60;99.90;;;;;;5032754;28;20214;-77
2022/10/19 02:20:51;;;;;;;13.10;5.32;;;11.70;99.90;;;;;;5033459;28;20172;-79
2022/10/19 02:23:20;;;;;;;13.75;5.88;;;11.60;99.90;;;;;;5035735;28;20179;-78
2022/10/19 02:25:46;;;;;;;10.60;5.57;;;11.60;99.90;;;;;;5035144;28;20215;-90
2022/10/19 02:28:12;;;;;;;15.90;5.10;;;11.50;99.90;;;;;;5037748;28;20187;-77
2022/10/19 02:30:38;;;;;;;15.75;5.45;;;11.50;99.90;;;;;;5037575;28;20201;-77
2022/10/19 02:33:07;;;;;;;12.25;5.10;;;11.50;99.90;;;;;;5036252;28;20174;-78
2022/10/19 02:35:33;;;;;;;27.23;6.38;;;11.60;99.90;;;;;;5036519;28;20218;-78
2022/10/19 02:38:01;;;;;;;11.32;5.78;;;11.50;99.90;;;;;;5037846;28;20196;-77
2022/10/19 02:40:30;;;;;;;14.02;6.18;;;11.60;99.90;;;;;;5036884;28;20543;-78
2022/10/19 02:43:02;;;;;;;15.05;6.07;;;11.70;99.90;;;;;;5036513;28;20200;-79
2022/10/19 02:45:31;;;;;;;22.17;5.55;;;11.60;99.90;;;;;;5036270;28;20180;-78
2022/10/19 02:48:06;;;;;;;26.02;6.43;;;11.60;99.90;;;;;;5035831;28;20179;-77
2022/10/19 02:50:32;;;;;;;16.48;6.10;;;11.50;99.90;;;;;;5038667;28;20163;-78
2022/10/19 02:52:58;;;;;;;21.13;7.03;;;11.50;99.90;;;;;;5037107;28;20195;-78
2022/10/19 02:55:24;;;;;;;20.08;6.55;;;11.40;99.90;;;;;;5036639;28;20247;-78
2022/10/19 02:57:49;;;;;;;12.05;6.20;;;11.30;99.90;;;;;;5036733;28;20590;-78
2022/10/19 03:00:15;;;;;;;23.95;6.45;;;11.30;99.90;;;;;;5037106;28;20177;-78
2022/10/19 03:02:41;;;;;;;10.60;5.80;;;11.20;99.90;;;;;;5037435;28;20214;-78
2022/10/19 03:05:07;;;;;;;17.42;6.57;;;11.30;99.90;;;;;;5037017;28;20645;-78
2022/10/19 03:07:33;;;;;;;23.85;6.40;;;11.20;99.90;;;;;;5036029;28;20160;-77
2022/10/19 03:09:58;;;;;;;18.92;6.60;;;11.20;99.90;;;;;;5036590;28;20175;-78
2022/10/19 03:12:24;;;;;;;18.73;7.25;;;11.30;99.90;;;;;;5036580;28;20168;-78
2022/10/19 03:14:50;;;;;;;10.80;5.93;;;11.20;99.90;;;;;;5036155;28;20530;-78
2022/10/19 03:17:15;;;;;;;18.02;6.78;;;11.10;99.90;;;;;;5036184;28;20548;-78
2022/10/19 03:19:41;;;;;;;14.55;7.50;;;11.20;99.90;;;;;;5034848;28;20255;-77
2022/10/19 03:22:06;;;;;;;16.85;7.43;;;11.10;99.90;;;;;;5034713;28;20615;-77
2022/10/19 03:24:32;;;;;;;24.65;7.32;;;11.00;99.90;;;;;;5035928;28;20164;-77
2022/10/19 03:26:58;;;;;;;10.45;7.35;;;11.20;99.90;;;;;;5035140;28;20195;-78
2022/10/19 03:29:24;;;;;;;17.48;7.28;;;11.10;99.90;;;;;;5035446;28;20525;-78
2022/10/19 03:31:49;;;;;;;12.05;6.55;;;11.10;99.90;;;;;;5034577;28;20168;-77
2022/10/19 03:34:15;;;;;;;19.88;8.40;;;11.00;99.90;;;;;;5034981;28;20164;-78
2022/10/19 03:36:40;;;;;;;24.70;8.27;;;11.00;99.90;;;;;;5038121;28;20243;-79
2022/10/19 03:39:12;;;;;;;22.23;8.43;;;11.00;99.90;;;;;;5040449;28;20667;-82
2022/10/19 03:41:38;;;;;;;22.00;8.18;;;11.00;99.90;;;;;;5038336;28;20200;-78
2022/10/19 03:44:05;;;;;;;16.02;7.65;;;10.90;99.90;;;;;;5033724;28;20518;-78
2022/10/19 03:46:31;;;;;;;17.48;8.50;;;10.80;99.90;;;;;;5034685;28;20219;-78
2022/10/19 03:48:57;;;;;;;27.85;9.98;;;10.80;99.90;;;;;;5034789;28;20194;-78
2022/10/19 03:51:25;;;;;;;24.75;8.90;;;10.90;99.90;;;;;;5034240;28;20624;-78
2022/10/19 03:53:56;;;;;;;31.45;11.65;;;10.90;99.90;;;;;;5034524;28;20164;-78
2022/10/19 03:56:24;;;;;;;34.63;10.45;;;11.00;99.90;;;;;;5034236;28;20192;-83
2022/10/19 03:58:51;;;;;;;23.08;9.60;;;10.90;99.90;;;;;;5034268;28;20167;-77
2022/10/19 04:01:22;;;;;;;23.55;9.55;;;10.90;99.90;;;;;;5034363;28;20787;-78
2022/10/19 04:04:03;;;;;;;20.13;9.52;;;10.90;99.90;;;;;;5034074;28;20180;-77
2022/10/19 04:06:33;;;;;;;37.10;10.05;;;10.90;99.90;;;;;;5032841;28;20223;-78
2022/10/19 04:08:59;;;;;;;20.15;10.57;;;11.00;99.90;;;;;;5034252;28;20203;-78
2022/10/19 04:11:27;;;;;;;25.55;10.98;;;11.00;99.90;;;;;;5034604;28;20246;-78
2022/10/19 04:13:54;;;;;;;17.02;9.88;;;10.90;99.90;;;;;;5034334;28;20192;-78
2022/10/19 04:16:21;;;;;;;17.80;10.38;;;10.90;99.90;;;;;;5035763;28;20188;-77
2022/10/19 04:18:46;;;;;;;21.65;11.20;;;11.00;99.90;;;;;;5035741;28;20192;-77
2022/10/19 04:21:31;;;;;;;25.33;10.27;;;11.20;99.90;;;;;;5033099;28;20265;-79
2022/10/19 04:24:04;;;;;;;21.85;10.80;;;11.10;99.90;;;;;;5035016;28;20175;-78
2022/10/19 04:26:30;;;;;;;19.73;10.00;;;11.10;99.90;;;;;;5033682;28;20195;-92
2022/10/19 04:28:57;;;;;;;24.58;9.63;;;11.10;99.90;;;;;;5035185;28;20174;-91
2022/10/19 04:31:23;;;;;;;17.63;9.48;;;11.00;99.90;;;;;;5035405;28;20160;-78
2022/10/19 04:33:48;;;;;;;22.13;10.98;;;11.00;99.90;;;;;;5035441;28;20191;-78
2022/10/19 04:36:14;;;;;;;16.55;11.45;;;11.00;99.90;;;;;;5034665;28;20187;-78
2022/10/19 04:38:39;;;;;;;24.90;9.80;;;11.10;99.90;;;;;;5035781;28;20167;-79
2022/10/19 04:41:13;;;;;;;25.08;10.98;;;11.10;99.90;;;;;;5035749;28;20171;-79
2022/10/19 04:43:39;;;;;;;20.42;11.68;;;10.90;99.90;;;;;;5034914;28;20763;-79
2022/10/19 04:46:08;;;;;;;28.63;9.85;;;10.90;99.90;;;;;;5034617;28;20200;-79
2022/10/19 04:48:34;;;;;;;17.88;10.15;;;10.80;99.90;;;;;;5034613;28;20160;-79
2022/10/19 04:51:00;;;;;;;25.95;10.65;;;10.90;99.90;;;;;;5034604;28;20174;-79
2022/10/19 04:53:26;;;;;;;20.98;9.98;;;10.90;99.90;;;;;;5033283;28;20176;-78
2022/10/19 04:55:52;;;;;;;17.73;10.38;;;10.90;99.90;;;;;;5032506;28;20191;-77
2022/10/19 04:58:18;;;;;;;30.33;10.77;;;11.00;99.90;;;;;;5033762;28;20175;-78
2022/10/19 05:00:43;;;;;;;32.20;9.73;;;10.90;99.90;;;;;;5034358;28;20168;-78
2022/10/19 05:03:09;;;;;;;32.85;12.15;;;11.00;99.90;;;;;;5034994;28;20669;-77
2022/10/19 05:05:35;;;;;;;23.58;10.40;;;11.00;99.90;;;;;;5032529;28;20233;-78
2022/10/19 05:08:01;;;;;;;36.63;10.82;;;10.90;99.90;;;;;;5036525;28;20214;-78
2022/10/19 05:10:27;;;;;;;37.05;11.38;;;10.90;99.90;;;;;;5035066;28;20221;-77
2022/10/19 05:12:53;;;;;;;27.15;11.00;;;10.90;99.90;;;;;;5034483;28;20589;-78
2022/10/19 05:15:19;;;;;;;21.05;10.77;;;10.90;99.90;;;;;;5038641;28;20220;-80
2022/10/19 05:17:48;;;;;;;24.05;10.60;;;10.90;99.90;;;;;;5037963;28;20192;-78
2022/10/19 05:20:14;;;;;;;20.17;9.65;;;10.80;99.90;;;;;;5036082;28;20182;-78
2022/10/19 05:22:39;;;;;;;24.55;9.82;;;10.80;99.90;;;;;;5032864;28;20689;-79
2022/10/19 05:25:06;;;;;;;30.52;11.18;;;10.70;99.90;;;;;;5031940;28;20247;-79
2022/10/19 05:27:32;;;;;;;21.08;10.38;;;10.60;99.90;;;;;;5033248;28;20584;-78
2022/10/19 05:29:57;;;;;;;23.73;10.50;;;10.60;99.90;;;;;;5035286;28;20266;-79
2022/10/19 05:32:23;;;;;;;31.25;10.35;;;10.70;99.90;;;;;;5036975;28;20539;-78
2022/10/19 05:34:49;;;;;;;30.45;10.98;;;10.50;99.90;;;;;;5034609;28;20174;-78
2022/10/19 05:37:17;;;;;;;22.55;10.18;;;10.60;99.90;;;;;;5035799;28;20241;-78
2022/10/19 05:39:43;;;;;;;20.98;10.57;;;10.70;99.90;;;;;;5033196;28;20194;-78
2022/10/19 05:42:10;;;;;;;23.73;10.60;;;10.70;99.90;;;;;;5034089;28;20669;-78
2022/10/19 05:44:36;;;;;;;22.73;10.48;;;10.70;99.90;;;;;;5034605;28;20168;-78
2022/10/19 05:47:01;;;;;;;26.05;11.23;;;10.70;99.90;;;;;;5033828;28;20187;-79
2022/10/19 05:49:27;;;;;;;28.52;11.45;;;10.60;99.90;;;;;;5035229;28;20191;-78
2022/10/19 05:51:53;;;;;;;18.08;11.38;;;10.60;99.90;;;;;;5034957;28;20171;-82
2022/10/19 05:54:18;;;;;;;30.77;11.43;;;10.60;99.90;;;;;;5033192;28;20233;-78
2022/10/19 05:56:45;;;;;;;35.58;11.32;;;10.60;99.90;;;;;;5032771;28;20573;-77
2022/10/19 05:59:18;;;;;;;24.20;11.27;;;10.50;99.90;;;;;;5034333;28;20175;-78
2022/10/19 06:01:44;;;;;;;130.75;16.77;;;10.60;99.90;;;;;;5032413;28;20220;-78
2022/10/19 06:04:12;;;;;;;52.78;14.85;;;10.40;99.90;;;;;;5032318;28;20190;-77
2022/10/19 06:06:39;;;;;;;63.05;15.07;;;10.40;99.90;;;;;;5015398;28;20660;-78
2022/10/19 06:09:04;;;;;;;47.35;13.63;;;10.30;99.90;;;;;;5032982;28;20168;-78
2022/10/19 06:11:35;;;;;;;34.55;13.60;;;10.50;99.90;;;;;;5046490;28;20232;-77
2022/10/19 06:14:03;;;;;;;22.73;12.13;;;10.50;99.90;;;;;;5036907;28;20188;-78
2022/10/19 06:16:30;;;;;;;17.17;11.55;;;10.60;99.90;;;;;;5032405;28;20187;-78
2022/10/19 06:18:57;;;;;;;23.20;11.60;;;10.60;99.90;;;;;;5032459;28;20172;-78
2022/10/19 06:21:25;;;;;;;23.42;12.02;;;10.70;99.90;;;;;;5032226;28;20202;-78
2022/10/19 06:23:52;;;;;;;62.42;15.63;;;10.70;99.90;;;;;;5036757;28;20168;-77
2022/10/19 06:26:19;;;;;;;61.88;15.15;;;10.50;99.90;;;;;;5040779;28;20202;-77
2022/10/19 06:28:48;;;;;;;32.45;14.13;;;10.60;99.90;;;;;;5040715;28;20537;-79
2022/10/19 06:31:14;;;;;;;32.63;13.90;;;10.50;99.90;;;;;;5045837;28;20168;-81
2022/10/19 06:33:42;;;;;;;32.30;12.88;;;10.50;99.90;;;;;;5048000;28;20191;-81
2022/10/19 06:36:09;;;;;;;19.05;11.90;;;10.30;99.90;;;;;;5044940;28;20192;-80
2022/10/19 06:38:35;;;;;;;35.53;13.43;;;10.30;99.90;;;;;;5038420;28;20176;-79
2022/10/19 06:41:01;;;;;;;29.52;14.32;;;10.20;99.90;;;;;;5038789;28;20164;-79
2022/10/19 06:43:27;;;;;;;38.25;14.63;;;10.30;99.90;;;;;;5037980;28;20654;-78
2022/10/19 06:45:53;;;;;;;38.10;13.93;;;10.40;99.90;;;;;;5043383;28;20180;-78
2022/10/19 06:48:18;;;;;;;34.38;13.70;;;10.40;99.90;;;;;;5023409;28;20646;-79
2022/10/19 06:50:44;;;;;;;24.50;13.25;;;10.50;99.90;;;;;;5038438;28;20242;-78
2022/10/19 06:53:10;;;;;;;29.42;15.00;;;10.50;99.90;;;;;;5051164;28;20176;-78
2022/10/19 06:55:36;;;;;;;25.58;14.45;;;10.60;99.90;;;;;;5041514;28;20195;-78
2022/10/19 06:58:02;;;;;;;33.47;14.15;;;10.50;99.90;;;;;;5050497;28;20253;-80
2022/10/19 07:00:31;;;;;;;31.08;14.68;;;10.50;99.90;;;;;;5045366;28;20168;-88
2022/10/19 07:03:03;;;;;;;32.38;14.57;;;10.40;99.90;;;;;;5042579;28;20229;-77
2022/10/19 07:05:29;;;;;;;28.40;13.20;;;10.20;99.90;;;;;;5053284;28;20183;-78
2022/10/19 07:08:07;;;;;;;42.25;15.88;;;10.20;99.90;;;;;;5034575;28;20271;-78
2022/10/19 07:10:52;;;;;;;34.90;15.13;;;10.20;99.90;;;;;;5034636;28;20895;-78
2022/10/19 07:13:19;;;;;;;28.73;16.10;;;10.20;99.90;;;;;;5035546;28;20183;-77
2022/10/19 07:15:45;;;;;;;31.55;14.40;;;10.30;99.90;;;;;;5034514;28;20274;-78
2022/10/19 07:18:10;;;;;;;28.90;15.63;;;10.30;99.90;;;;;;5035673;28;20176;-78
2022/10/19 07:20:36;;;;;;;24.77;15.55;;;10.40;99.90;;;;;;5034988;28;20172;-77
2022/10/19 07:23:02;;;;;;;28.27;16.17;;;10.40;99.90;;;;;;5035106;28;20747;-77
2022/10/19 07:25:29;;;;;;;36.33;16.85;;;10.50;99.90;;;;;;5035290;28;21201;-82
2022/10/19 07:27:54;;;;;;;28.20;14.77;;;10.50;99.90;;;;;;5036400;28;20179;-77
2022/10/19 07:30:20;;;;;;;35.47;16.20;;;10.60;99.90;;;;;;5035111;28;20520;-77
2022/10/19 07:32:45;;;;;;;32.60;16.48;;;10.60;99.90;;;;;;5033072;28;20164;-77
2022/10/19 07:35:11;;;;;;;26.70;14.60;;;10.60;99.90;;;;;;5033190;28;20579;-77
2022/10/19 07:37:37;;;;;;;29.70;16.25;;;10.60;99.90;;;;;;5034230;28;20192;-77
2022/10/19 07:40:03;;;;;;;28.30;15.15;;;10.70;99.90;;;;;;5034511;28;20171;-77
2022/10/19 07:42:32;;;;;;;31.00;15.50;;;10.80;99.90;;;;;;5034517;28;20204;-79
2022/10/19 07:44:57;;;;;;;22.08;15.00;;;10.90;99.90;;;;;;5034689;28;20631;-78
2022/10/19 07:47:23;;;;;;;26.77;15.02;;;10.90;99.90;;;;;;5032775;28;20219;-78
2022/10/19 07:49:48;;;;;;;29.60;14.10;;;10.90;99.90;;;;;;5033076;28;20194;-78
2022/10/19 07:52:14;;;;;;;41.90;15.35;;;11.00;99.90;;;;;;5034372;28;20163;-78
2022/10/19 07:54:40;;;;;;;35.78;13.90;;;11.00;99.90;;;;;;5034599;28;20597;-77
2022/10/19 07:57:05;;;;;;;20.05;11.98;;;10.90;99.90;;;;;;5034585;28;20192;-79
2022/10/19 07:59:31;;;;;;;33.50;14.27;;;11.00;99.90;;;;;;5033052;28;20170;-77
2022/10/19 08:01:57;;;;;;;28.23;12.00;;;11.10;99.90;;;;;;5035926;28;20282;-85
2022/10/19 08:04:23;;;;;;;31.25;13.10;;;11.20;99.90;;;;;;5032678;28;20199;-76
2022/10/19 08:06:49;;;;;;;26.40;13.05;;;11.30;99.90;;;;;;5033356;28;20184;-79
2022/10/19 08:09:14;;;;;;;38.65;13.10;;;11.30;99.90;;;;;;5031063;28;20722;-83
2022/10/19 08:11:40;;;;;;;31.23;11.38;;;11.40;99.90;;;;;;5034487;28;20168;-87
2022/10/19 08:14:06;;;;;;;31.50;10.77;;;11.50;99.90;;;;;;5034864;28;20222;-88
2022/10/19 08:16:38;;;;;;;23.85;11.15;;;11.50;99.90;;;;;;5036430;28;20539;-88
2022/10/19 08:19:14;;;;;;;37.10;11.20;;;11.50;99.90;;;;;;5034134;28;20164;-77
2022/10/19 08:21:42;;;;;;;19.48;10.80;;;11.50;99.90;;;;;;5034118;28;20570;-78
2022/10/19 08:24:10;;;;;;;22.48;10.07;;;11.40;99.90;;;;;;5033812;28;20672;-89
2022/10/19 08:26:37;;;;;;;20.98;10.00;;;11.40;99.90;;;;;;5035832;28;20218;-87
2022/10/19 08:29:05;;;;;;;26.05;11.15;;;11.60;99.90;;;;;;5032725;28;20152;-76
2022/10/19 08:31:31;;;;;;;23.77;11.23;;;11.60;99.90;;;;;;5033922;28;20208;-83
2022/10/19 08:33:57;;;;;;;42.97;11.10;;;11.80;99.90;;;;;;5033913;28;20176;-79
2022/10/19 08:36:24;;;;;;;43.58;10.55;;;11.80;99.90;;;;;;5014487;28;20236;-77
2022/10/19 08:38:50;;;;;;;20.83;10.23;;;11.80;99.90;;;;;;5022286;28;20161;-89
2022/10/19 08:41:31;;;;;;;30.15;10.60;;;11.80;99.90;;;;;;5029469;28;20156;-79
2022/10/19 08:44:30;;;;;;;24.05;11.18;;;11.90;99.90;;;;;;5031786;28;20251;-78
2022/10/19 08:47:35;;;;;;;20.35;10.40;;;12.10;99.90;;;;;;5035917;28;20215;-81
2022/10/19 08:50:13;;;;;;;16.67;9.90;;;12.30;99.90;;;;;;5034056;28;20206;-87
2022/10/19 08:52:40;;;;;;;28.42;10.75;;;12.40;99.90;;;;;;5032714;28;20167;-79
2022/10/19 08:55:15;;;;;;;26.60;9.80;;;12.40;99.90;;;;;;5033893;28;20180;-87
2022/10/19 08:58:02;;;;;;;20.25;9.70;;;12.30;99.90;;;;;;5040500;28;20206;-79
2022/10/19 09:00:54;;;;;;;25.17;10.13;;;12.40;99.90;;;;;;5038468;28;20167;-78
2022/10/19 09:03:36;;;;;;;14.75;9.45;;;12.60;99.90;;;;;;5025034;28;20295;-78
2022/10/19 09:06:27;;;;;;;21.60;9.50;;;12.70;99.90;;;;;;5022222;28;20192;-78
2022/10/19 09:08:55;;;;;;;18.58;10.13;;;12.60;99.90;;;;;;5033902;28;20195;-77
2022/10/19 09:11:28;;;;;;;15.88;9.38;;;12.70;99.90;;;;;;5037425;28;20172;-77
2022/10/19 09:14:26;;;;;;;20.33;9.50;;;12.80;99.90;;;;;;5038648;28;20179;-78
2022/10/19 09:17:02;;;;;;;24.95;10.07;;;12.90;99.90;;;;;;5054073;28;20191;-86
2022/10/19 09:19:30;;;;;;;15.10;8.73;;;13.00;99.90;;;;;;5053927;28;20203;-78
2022/10/19 09:22:31;;;;;;;26.20;8.85;;;13.00;99.90;;;;;;5033062;28;20542;-76
2022/10/19 09:25:02;;;;;;;13.65;8.88;;;13.20;99.90;;;;;;5031151;28;20186;-77
2022/10/19 09:27:39;;;;;;;20.45;8.38;;;13.10;99.90;;;;;;5031840;28;20728;-76
2022/10/19 09:30:14;;;;;;;15.25;7.97;;;13.30;99.90;;;;;;5032736;28;20503;-77
2022/10/19 09:32:40;;;;;;;24.45;7.75;;;13.30;99.90;;;;;;5031953;28;20170;-77
2022/10/19 09:35:23;;;;;;;13.32;7.85;;;13.30;99.90;;;;;;5032936;28;20312;-77
2022/10/19 09:37:50;;;;;;;19.67;7.60;;;13.40;99.90;;;;;;5033972;28;20175;-77
2022/10/19 09:40:25;;;;;;;16.13;7.65;;;13.40;99.90;;;;;;5036839;28;20152;-77
2022/10/19 09:42:56;;;;;;;22.52;7.45;;;13.60;99.90;;;;;;5033564;28;20573;-77
2022/10/19 09:45:43;;;;;;;22.75;7.40;;;13.60;99.90;;;;;;5033628;28;20164;-77
2022/10/19 09:48:32;;;;;;;22.35;7.68;;;13.70;99.90;;;;;;5033218;28;20175;-76
2022/10/19 09:51:00;;;;;;;17.02;7.68;;;13.70;99.90;;;;;;5031026;28;20159;-84
2022/10/19 09:53:28;;;;;;;18.33;7.78;;;13.80;99.90;;;;;;5032534;28;20519;-76
2022/10/19 09:56:07;;;;;;;16.45;7.57;;;13.90;99.90;;;;;;5032582;28;20175;-76
2022/10/19 09:58:34;;;;;;;17.75;7.68;;;13.90;99.90;;;;;;5032106;28;20665;-76
2022/10/19 10:01:01;;;;;;;14.63;7.80;;;14.00;99.90;;;;;;5035347;28;20278;-76
2022/10/19 10:03:39;;;;;;;22.27;8.27;;;14.20;99.90;;;;;;5035270;28;20233;-76
2022/10/19 10:06:13;;;;;;;12.75;8.02;;;14.20;99.90;;;;;;5032605;28;20199;-77
2022/10/19 10:08:49;;;;;;;12.02;7.60;;;14.20;99.90;;;;;;5043249;28;20234;-78
2022/10/19 10:11:24;;;;;;;20.95;7.53;;;14.30;99.90;;;;;;5039114;28;20160;-78
2022/10/19 10:13:53;;;;;;;15.25;7.22;;;14.20;99.90;;;;;;5035768;28;20254;-79
2022/10/19 10:16:22;;;;;;;16.70;7.90;;;14.30;99.90;;;;;;5042480;28;20187;-78
2022/10/19 10:19:06;;;;;;;9.57;7.13;;;14.40;99.90;;;;;;5044616;28;20263;-78
2022/10/19 10:21:51;;;;;;;21.10;7.35;;;14.40;99.90;;;;;;5040142;28;20602;-79
2022/10/19 10:24:19;;;;;;;20.35;7.07;;;14.40;99.90;;;;;;5039920;28;20186;-78
2022/10/19 10:26:51;;;;;;;15.75;7.05;;;14.50;99.90;;;;;;5032131;28;20666;-80
2022/10/19 10:29:38;;;;;;;28.80;6.97;;;14.70;99.90;;;;;;5030594;28;20582;-78
2022/10/19 10:32:20;;;;;;;19.23;6.65;;;14.80;99.90;;;;;;5031862;28;20160;-79
2022/10/19 10:35:00;;;;;;;19.58;6.57;;;14.90;99.90;;;;;;5031734;28;20251;-78
2022/10/19 10:37:43;;;;;;;15.50;7.65;;;15.10;99.90;;;;;;5032275;28;20727;-79
2022/10/19 10:40:28;;;;;;;24.48;7.43;;;15.20;99.90;;;;;;5032066;28;20225;-79
2022/10/19 10:43:01;;;;;;;15.38;5.80;;;15.10;99.90;;;;;;5032254;28;20206;-77
2022/10/19 10:45:35;;;;;;;9.25;6.13;;;15.10;99.90;;;;;;5035605;28;20275;-79
2022/10/19 10:48:25;;;;;;;19.33;7.78;;;15.20;99.90;;;;;;5035690;28;20168;-80
2022/10/19 10:50:51;;;;;;;15.25;6.78;;;15.10;99.90;;;;;;5036213;28;20255;-79
2022/10/19 10:53:36;;;;;;;22.50;6.93;;;15.20;99.90;;;;;;5035746;28;20180;-79
2022/10/19 10:56:03;;;;;;;12.05;8.05;;;15.20;99.90;;;;;;5034257;28;20336;-80
2022/10/19 10:58:57;;;;;;;14.45;7.72;;;15.30;99.90;;;;;;5036116;28;20222;-79
2022/10/19 11:01:26;;;;;;;12.63;7.07;;;15.40;99.90;;;;;;5035131;28;20186;-77
2022/10/19 11:03:59;;;;;;;16.92;6.90;;;15.40;99.90;;;;;;5035867;28;20163;-77
2022/10/19 11:06:25;;;;;;;12.45;6.93;;;15.50;99.90;;;;;;5035711;28;20267;-77
2022/10/19 11:09:10;;;;;;;17.25;6.70;;;15.60;99.90;;;;;;5035959;28;20196;-80
2022/10/19 11:11:41;;;;;;;15.45;6.65;;;15.60;99.90;;;;;;5034450;28;20614;-78
2022/10/19 11:14:22;;;;;;;22.63;7.28;;;15.60;99.90;;;;;;5035582;28;20187;-79
2022/10/19 11:16:51;;;;;;;20.83;7.32;;;15.70;99.90;;;;;;5037612;28;20218;-79
2022/10/19 11:19:39;;;;;;;22.35;6.50;;;15.80;99.90;;;;;;5052792;28;20168;-79
2022/10/19 11:22:40;;;;;;;19.20;7.00;;;15.80;99.90;;;;;;5037545;28;20609;-79
2022/10/19 11:25:40;;;;;;;17.58;6.38;;;15.90;99.90;;;;;;5026747;28;20282;-79
2022/10/19 11:28:15;;;;;;;17.80;6.90;;;15.90;99.90;;;;;;5019122;28;20184;-79
2022/10/19 11:31:19;;;;;;;14.88;7.45;;;15.80;99.90;;;;;;5034498;28;20168;-85
2022/10/19 11:33:56;;;;;;;19.27;6.95;;;15.80;99.90;;;;;;5035366;28;20167;-80
2022/10/19 11:36:56;;;;;;;22.90;6.88;;;15.90;99.90;;;;;;5035623;28;20195;-79
2022/10/19 11:39:46;;;;;;;10.70;6.07;;;16.00;99.90;;;;;;5035407;28;20168;-80
2022/10/19 11:42:18;;;;;;;15.50;6.53;;;16.00;99.90;;;;;;5034561;28;20211;-78
2022/10/19 11:44:57;;;;;;;12.02;6.35;;;16.00;99.90;;;;;;5034812;28;20172;-84
2022/10/19 11:47:52;;;;;;;21.20;6.90;;;16.10;99.90;;;;;;5033504;28;20214;-78
2022/10/19 11:50:35;;;;;;;22.02;5.47;;;16.10;99.90;;;;;;5034531;28;20251;-77
2022/10/19 11:53:33;;;;;;;15.55;6.88;;;16.20;99.90;;;;;;5035236;28;20172;-77
2022/10/19 11:56:07;;;;;;;14.98;6.25;;;16.20;99.90;;;;;;5019319;28;20282;-77
2022/10/19 11:58:57;;;;;;;9.25;6.38;;;16.30;99.90;;;;;;5034555;28;20167;-77
2022/10/19 12:01:47;;;;;;;20.52;6.35;;;16.40;99.90;;;;;;5033679;28;20541;-79
2022/10/19 12:04:19;;;;;;;12.15;6.47;;;16.40;99.90;;;;;;5034896;28;20541;-79
2022/10/19 12:06:53;;;;;;;15.32;7.10;;;16.40;99.90;;;;;;5033510;28;20192;-78
2022/10/19 12:09:21;;;;;;;22.92;7.78;;;16.50;99.90;;;;;;5034551;28;20632;-78
2022/10/19 12:12:03;;;;;;;16.08;7.72;;;16.60;99.90;;;;;;5034194;28;20329;-77
2022/10/19 12:14:37;;;;;;;12.15;6.75;;;16.70;99.90;;;;;;5034073;28;20266;-78
2022/10/19 12:17:19;;;;;;;16.35;7.72;;;16.70;99.90;;;;;;5033474;28;20283;-77
2022/10/19 12:19:52;;;;;;;14.57;6.40;;;16.80;99.90;;;;;;5033693;28;20164;-77
2022/10/19 12:22:22;;;;;;;17.77;7.22;;;16.90;99.90;;;;;;5032932;28;20669;-77
2022/10/19 12:24:49;;;;;;;18.52;8.60;;;17.00;99.90;;;;;;5032556;28;20175;-77
2022/10/19 12:27:27;;;;;;;15.45;7.55;;;17.10;99.90;;;;;;5032326;28;20273;-77
2022/10/19 12:29:53;;;;;;;14.48;7.95;;;17.30;99.90;;;;;;5033753;28;20175;-77
2022/10/19 12:32:22;;;;;;;12.70;7.00;;;17.30;99.90;;;;;;5033869;28;20179;-77
2022/10/19 12:35:16;;;;;;;9.73;7.05;;;17.20;99.90;;;;;;5032448;28;20166;-77
2022/10/19 12:38:09;;;;;;;18.55;7.53;;;17.30;99.90;;;;;;5033451;28;20194;-77
2022/10/19 12:41:00;;;;;;;14.73;7.05;;;17.40;99.90;;;;;;5031879;28;20167;-84
2022/10/19 12:43:53;;;;;;;12.07;7.15;;;17.40;99.90;;;;;;5033292;28;20354;-77
2022/10/19 12:46:41;;;;;;;15.43;6.18;;;17.50;99.90;;;;;;5033568;28;20668;-77
2022/10/19 12:49:25;;;;;;;9.48;6.97;;;17.70;99.90;;;;;;5032306;28;20622;-77
2022/10/19 12:51:52;;;;;;;12.57;7.43;;;17.70;99.90;;;;;;5033185;28;20715;-77
2022/10/19 12:54:26;;;;;;;21.75;8.30;;;17.60;99.90;;;;;;5033195;28;20175;-77
2022/10/19 12:56:54;;;;;;;14.65;6.80;;;17.60;99.90;;;;;;5031387;28;20245;-78